createdAt,value
2023-02-06T00:01:44.543Z,13.30
2023-02-06T00:04:13.197Z,10.15
2023-02-06T00:06:41.820Z,10.73
2023-02-06T00:09:10.281Z,10.38
2023-02-06T00:11:39.110Z,10.63
2023-02-06T00:14:07.614Z,10.57
2023-02-06T00:16:37.564Z,12.05
2023-02-06T00:19:05.967Z,12.00
2023-02-06T00:21:34.664Z,15.07
2023-02-06T00:24:03.687Z,13.45
2023-02-06T00:26:32.525Z,13.60
2023-02-06T00:29:01.045Z,14.88
2023-02-06T00:31:29.653Z,12.95
2023-02-06T00:33:59.299Z,14.77
2023-02-06T00:36:28.207Z,14.02
2023-02-06T00:38:56.542Z,15.27
2023-02-06T00:41:25.027Z,15.75
2023-02-06T00:43:53.278Z,17.70
2023-02-06T00:46:22.369Z,16.10
2023-02-06T00:48:50.689Z,16.42
2023-02-06T00:51:20.504Z,13.32
2023-02-06T00:53:50.974Z,16.35
2023-02-06T00:56:20.568Z,13.05
2023-02-06T00:58:48.862Z,16.27
2023-02-06T01:01:17.674Z,16.48
2023-02-06T01:03:46.061Z,14.45
2023-02-06T01:06:14.999Z,14.15
2023-02-06T01:08:44.709Z,15.05
2023-02-06T01:11:15.326Z,15.65
2023-02-06T01:13:45.027Z,15.52
2023-02-06T01:16:18.673Z,15.38
2023-02-06T01:18:47.549Z,14.95
2023-02-06T01:21:17.664Z,16.48
2023-02-06T01:23:48.796Z,16.45
2023-02-06T01:26:20.326Z,15.40
2023-02-06T01:28:50.280Z,15.15
2023-02-06T01:31:21.221Z,14.97
2023-02-06T01:33:52.250Z,15.15
2023-02-06T01:36:21.635Z,16.02
2023-02-06T01:38:51.441Z,17.30
2023-02-06T01:41:21.666Z,18.60
2023-02-06T01:44:13.257Z,18.42
2023-02-06T01:46:43.244Z,18.48
2023-02-06T01:49:15.246Z,19.20
2023-02-06T01:51:44.057Z,18.13
2023-02-06T01:54:15.613Z,20.17
2023-02-06T01:56:47.517Z,20.08
2023-02-06T01:59:15.912Z,17.15
2023-02-06T02:01:45.056Z,17.00
2023-02-06T02:04:16.616Z,18.83
2023-02-06T02:06:47.426Z,18.05
2023-02-06T02:09:19.095Z,15.05
2023-02-06T02:11:47.744Z,17.50
2023-02-06T02:14:18.106Z,15.73
2023-02-06T02:16:56.488Z,17.90
2023-02-06T02:19:54.802Z,19.35
2023-02-06T02:22:53.051Z,20.60
2023-02-06T02:25:48.904Z,17.92
2023-02-06T02:28:44.490Z,18.70
2023-02-06T02:31:21.648Z,17.33
2023-02-06T02:34:28.944Z,18.98
2023-02-06T02:37:01.732Z,18.40
2023-02-06T02:39:36.174Z,15.68
2023-02-06T02:42:14.715Z,16.35
2023-02-06T02:44:48.571Z,16.25
2023-02-06T02:47:18.553Z,17.75
2023-02-06T02:49:47.352Z,18.37
2023-02-06T02:52:17.240Z,15.48
2023-02-06T02:54:45.867Z,17.95
2023-02-06T02:57:17.478Z,17.52
2023-02-06T02:59:47.903Z,16.23
2023-02-06T03:02:20.284Z,17.10
2023-02-06T03:04:50.822Z,17.00
2023-02-06T03:07:28.296Z,16.83
2023-02-06T03:10:02.965Z,16.45
2023-02-06T03:12:36.574Z,15.70
2023-02-06T03:15:09.007Z,14.95
2023-02-06T03:17:40.437Z,14.98
2023-02-06T03:20:11.012Z,14.50
2023-02-06T03:22:42.261Z,14.98
2023-02-06T03:25:14.254Z,13.35
2023-02-06T03:27:43.877Z,15.30
2023-02-06T03:30:14.163Z,14.63
2023-02-06T03:32:44.544Z,13.32
2023-02-06T03:35:17.533Z,12.00
2023-02-06T03:37:49.179Z,14.52
2023-02-06T03:40:18.569Z,14.70
2023-02-06T03:42:51.660Z,15.00
2023-02-06T03:45:25.771Z,15.23
2023-02-06T03:47:55.848Z,15.43
2023-02-06T03:50:25.106Z,13.73
2023-02-06T03:52:56.716Z,16.40
2023-02-06T03:55:34.781Z,15.15
2023-02-06T03:58:06.912Z,16.75
2023-02-06T04:00:35.811Z,16.95
2023-02-06T04:03:05.117Z,16.05
2023-02-06T04:05:33.918Z,16.15
2023-02-06T04:08:04.123Z,16.20
2023-02-06T04:10:32.824Z,17.67
2023-02-06T04:13:01.304Z,16.85
2023-02-06T04:15:30.063Z,17.88
2023-02-06T04:18:01.133Z,19.52
2023-02-06T04:20:30.911Z,18.73
2023-02-06T04:22:59.497Z,18.27
2023-02-06T04:25:29.699Z,18.15
2023-02-06T04:27:57.877Z,18.00
2023-02-06T04:30:26.443Z,19.00
2023-02-06T04:32:54.722Z,18.65
2023-02-06T04:35:23.191Z,17.13
2023-02-06T04:37:51.451Z,17.00
2023-02-06T04:40:20.190Z,18.50
2023-02-06T04:42:49.941Z,17.42
2023-02-06T04:45:18.435Z,18.05
2023-02-06T04:47:49.732Z,18.25
2023-02-06T04:50:19.614Z,17.10
2023-02-06T04:52:47.844Z,17.23
2023-02-06T04:55:16.517Z,18.95
2023-02-06T04:57:44.867Z,19.85
2023-02-06T05:00:16.476Z,24.23
2023-02-06T05:02:44.689Z,27.95
2023-02-06T05:05:14.252Z,25.02
2023-02-06T05:07:42.458Z,23.42
2023-02-06T05:10:11.574Z,25.25
2023-02-06T05:12:39.940Z,27.52
2023-02-06T05:15:09.241Z,25.80
2023-02-06T05:17:38.912Z,27.08
2023-02-06T05:20:08.489Z,26.48
2023-02-06T05:22:37.756Z,23.73
2023-02-06T05:25:06.974Z,27.45
2023-02-06T05:27:35.264Z,26.25
2023-02-06T05:30:03.890Z,25.15
2023-02-06T05:32:32.123Z,26.45
2023-02-06T05:35:02.003Z,27.88
2023-02-06T05:37:30.327Z,26.92
2023-02-06T05:40:00.056Z,26.90
2023-02-06T05:42:28.535Z,26.08
2023-02-06T05:44:57.101Z,24.45
2023-02-06T05:47:26.036Z,26.42
2023-02-06T05:49:54.938Z,24.98
2023-02-06T05:52:24.659Z,25.65
2023-02-06T05:54:53.241Z,25.30
2023-02-06T05:57:21.556Z,24.23
2023-02-06T05:59:50.230Z,25.40
2023-02-06T06:02:18.792Z,25.50
2023-02-06T06:04:47.511Z,23.58
2023-02-06T06:07:16.394Z,23.30
2023-02-06T06:09:46.820Z,24.58
2023-02-06T06:12:15.150Z,23.38
2023-02-06T06:14:43.870Z,23.17
2023-02-06T06:17:12.145Z,23.95
2023-02-06T06:19:40.667Z,24.10
2023-02-06T06:22:09.254Z,22.73
2023-02-06T06:24:37.934Z,22.80
2023-02-06T06:27:10.674Z,21.63
2023-02-06T06:29:39.468Z,21.48
2023-02-06T06:32:07.895Z,20.50
2023-02-06T06:34:36.584Z,18.40
2023-02-06T06:37:05.059Z,20.13
2023-02-06T06:39:33.685Z,18.92
2023-02-06T06:42:04.441Z,18.60
2023-02-06T06:44:34.409Z,23.15
2023-02-06T06:47:02.580Z,18.40
2023-02-06T06:49:31.204Z,19.33
2023-02-06T06:51:59.781Z,22.35
2023-02-06T06:54:28.220Z,22.00
2023-02-06T06:56:56.611Z,24.10
2023-02-06T06:59:25.401Z,26.45
2023-02-06T07:01:55.179Z,26.58
2023-02-06T07:04:28.575Z,24.08
2023-02-06T07:06:57.106Z,25.70
2023-02-06T07:09:25.838Z,25.83
2023-02-06T07:11:54.287Z,25.20
2023-02-06T07:14:22.769Z,27.40
2023-02-06T07:16:51.084Z,27.33
2023-02-06T07:19:21.439Z,25.33
2023-02-06T07:21:49.870Z,28.38
2023-02-06T07:24:19.075Z,31.42
2023-02-06T07:26:47.361Z,31.02
2023-02-06T07:29:16.229Z,29.20
2023-02-06T07:31:44.534Z,30.60
2023-02-06T07:34:13.685Z,24.90
2023-02-06T07:36:43.639Z,26.48
2023-02-06T07:39:12.135Z,29.50
2023-02-06T07:41:40.396Z,29.67
2023-02-06T07:44:09.062Z,27.55
2023-02-06T07:46:37.251Z,26.85
2023-02-06T07:49:05.805Z,26.42
2023-02-06T07:51:34.059Z,29.45
2023-02-06T07:54:04.030Z,29.63
2023-02-06T07:56:32.705Z,27.90
2023-02-06T07:59:01.462Z,28.17
2023-02-06T08:01:29.950Z,29.70
2023-02-06T08:03:58.763Z,27.88
2023-02-06T08:06:27.650Z,29.02
2023-02-06T08:08:57.211Z,25.05
2023-02-06T08:11:30.248Z,25.80
2023-02-06T08:13:59.417Z,25.42
2023-02-06T08:16:27.802Z,23.92
2023-02-06T08:18:56.334Z,23.92
2023-02-06T08:21:26.144Z,25.88
2023-02-06T08:23:58.903Z,24.33
2023-02-06T08:26:29.875Z,25.98
2023-02-06T08:31:29.472Z,24.75
2023-02-06T08:33:58.247Z,25.95
2023-02-06T08:36:27.039Z,27.17
2023-02-06T08:38:55.768Z,30.55
2023-02-06T08:41:26.309Z,22.00
2023-02-06T08:43:57.867Z,27.98
2023-02-06T08:46:28.413Z,33.47
2023-02-06T08:48:58.732Z,34.50
2023-02-06T08:51:28.063Z,41.03
2023-02-06T08:54:00.221Z,23.98
2023-02-06T08:56:29.589Z,27.08
2023-02-06T08:59:00.586Z,24.48
2023-02-06T09:01:30.887Z,27.80
2023-02-06T09:04:01.073Z,20.67
2023-02-06T09:06:30.785Z,63.50
2023-02-06T09:08:59.586Z,30.00
2023-02-06T09:11:28.624Z,19.60
2023-02-06T09:14:00.409Z,17.50
2023-02-06T09:16:29.909Z,16.48
2023-02-06T09:19:01.474Z,12.52
2023-02-06T09:24:01.432Z,6.40
2023-02-06T09:26:30.910Z,7.80
2023-02-06T09:29:03.256Z,8.48
2023-02-06T09:31:32.285Z,6.07
2023-02-06T09:34:01.452Z,6.13
2023-02-06T09:36:30.790Z,7.07
2023-02-06T09:38:59.567Z,9.32
2023-02-06T09:41:41.818Z,11.77
2023-02-06T09:44:17.218Z,13.23
2023-02-06T09:46:48.318Z,15.23
2023-02-06T09:52:31.402Z,9.70
2023-02-06T09:55:07.193Z,10.27
2023-02-06T09:57:40.532Z,13.48
2023-02-06T10:00:30.598Z,15.88
2023-02-06T10:03:08.515Z,17.42
2023-02-06T10:05:48.140Z,11.80
2023-02-06T10:08:20.900Z,9.30
2023-02-06T10:10:51.992Z,10.60
2023-02-06T10:13:24.214Z,8.75
2023-02-06T10:15:57.950Z,10.13
2023-02-06T10:18:33.543Z,8.30
2023-02-06T10:21:06.109Z,8.82
2023-02-06T10:23:38.862Z,10.27
2023-02-06T10:26:12.475Z,12.15
2023-02-06T10:28:41.821Z,14.13
2023-02-06T10:31:26.822Z,12.50
2023-02-06T10:34:05.828Z,16.92
2023-02-06T10:36:46.784Z,17.70
2023-02-06T10:39:40.385Z,11.50
2023-02-06T10:42:13.730Z,12.98
2023-02-06T10:44:51.042Z,11.60
2023-02-06T10:47:30.473Z,11.50
2023-02-06T10:50:03.301Z,12.20
2023-02-06T10:52:34.665Z,11.30
2023-02-06T10:55:06.653Z,12.50
2023-02-06T10:57:35.629Z,12.60
2023-02-06T11:00:05.963Z,11.45
2023-02-06T11:02:44.506Z,12.00
2023-02-06T11:05:17.533Z,12.88
2023-02-06T11:07:47.903Z,18.88
2023-02-06T11:10:18.812Z,12.88
2023-02-06T11:12:51.452Z,13.68
2023-02-06T11:15:23.852Z,13.48
2023-02-06T11:17:55.062Z,13.73
2023-02-06T11:20:25.378Z,19.70
2023-02-06T11:22:54.033Z,16.20
2023-02-06T11:25:27.414Z,17.05
2023-02-06T11:27:59.234Z,17.70
2023-02-06T11:30:35.005Z,15.68
2023-02-06T11:33:07.625Z,12.90
2023-02-06T11:35:39.713Z,12.57
2023-02-06T11:38:16.220Z,11.57
2023-02-06T11:40:45.170Z,11.80
2023-02-06T11:43:18.972Z,14.05
2023-02-06T11:45:48.699Z,12.65
2023-02-06T11:48:40.730Z,14.18
2023-02-06T11:51:10.497Z,12.43
2023-02-06T11:53:39.601Z,12.90
2023-02-06T11:56:19.063Z,14.32
2023-02-06T11:58:48.457Z,14.13
2023-02-06T12:01:20.482Z,12.60
2023-02-06T12:03:57.777Z,12.43
2023-02-06T12:06:30.742Z,11.93
2023-02-06T12:09:00.598Z,10.55
2023-02-06T12:11:33.401Z,14.77
2023-02-06T12:14:06.270Z,12.23
2023-02-06T12:16:37.995Z,11.63
2023-02-06T12:19:12.613Z,12.27
2023-02-06T12:21:44.186Z,109.95
2023-02-06T12:24:22.301Z,13.45
2023-02-06T12:26:52.263Z,69.80
2023-02-06T12:29:24.828Z,14.27
2023-02-06T12:32:00.022Z,15.18
2023-02-06T12:34:41.654Z,15.95
2023-02-06T12:37:14.519Z,15.32
2023-02-06T12:39:45.506Z,12.57
2023-02-06T12:42:36.371Z,10.43
2023-02-06T12:45:09.417Z,10.20
2023-02-06T12:47:42.711Z,7.35
2023-02-06T12:50:16.805Z,8.15
2023-02-06T12:52:49.141Z,11.60
2023-02-06T12:55:22.587Z,10.45
2023-02-06T12:57:51.090Z,7.28
2023-02-06T13:00:40.884Z,10.50
2023-02-06T13:03:28.445Z,6.07
2023-02-06T13:06:04.657Z,7.57
2023-02-06T13:08:41.568Z,8.20
2023-02-06T13:11:19.161Z,9.50
2023-02-06T13:13:47.642Z,12.00
2023-02-06T13:16:16.424Z,11.57
2023-02-06T13:18:54.698Z,11.35
2023-02-06T13:21:28.785Z,9.13
2023-02-06T13:24:18.105Z,8.77
2023-02-06T13:27:19.994Z,14.23
2023-02-06T13:32:41.073Z,13.02
2023-02-06T13:35:24.354Z,10.73
2023-02-06T13:38:14.714Z,9.02
2023-02-06T13:40:43.762Z,9.90
2023-02-06T13:43:18.784Z,11.10
2023-02-06T13:45:54.124Z,10.40
2023-02-06T13:48:49.701Z,12.70
2023-02-06T13:51:46.944Z,16.45
2023-02-06T13:54:49.139Z,10.35
2023-02-06T13:57:31.191Z,10.50
2023-02-06T14:00:03.373Z,14.48
2023-02-06T14:02:38.130Z,16.58
2023-02-06T14:05:12.467Z,9.25
2023-02-06T14:08:10.446Z,12.32
2023-02-06T14:11:28.736Z,11.75
2023-02-06T14:14:15.178Z,11.20
2023-02-06T14:16:49.803Z,12.43
2023-02-06T14:19:27.700Z,8.85
2023-02-06T14:22:03.433Z,9.68
2023-02-06T14:24:51.844Z,14.07
2023-02-06T14:27:31.199Z,9.02
2023-02-06T14:30:07.556Z,10.13
2023-02-06T14:32:44.341Z,9.57
2023-02-06T14:35:33.041Z,11.05
2023-02-06T14:38:28.809Z,9.65
2023-02-06T14:41:00.745Z,9.20
2023-02-06T14:43:33.105Z,14.02
2023-02-06T14:46:08.068Z,19.75
2023-02-06T14:48:41.849Z,8.05
2023-02-06T14:51:20.787Z,8.57
2023-02-06T14:53:53.862Z,10.18
2023-02-06T14:56:28.220Z,10.73
2023-02-06T14:58:59.004Z,10.90
2023-02-06T15:01:30.274Z,26.48
2023-02-06T15:04:11.067Z,11.52
2023-02-06T15:06:40.990Z,15.02
2023-02-06T15:09:10.239Z,16.08
2023-02-06T15:11:38.597Z,15.93
2023-02-06T15:14:27.687Z,11.80
2023-02-06T15:17:00.966Z,11.90
2023-02-06T15:19:31.339Z,13.88
2023-02-06T15:22:02.255Z,12.50
2023-02-06T15:24:40.564Z,17.75
2023-02-06T15:27:14.007Z,12.40
2023-02-06T15:29:48.288Z,10.75
2023-02-06T15:32:24.277Z,14.15
2023-02-06T15:34:53.122Z,12.10
2023-02-06T15:37:23.802Z,13.70
2023-02-06T15:39:53.420Z,13.50
2023-02-06T15:42:22.834Z,14.57
2023-02-06T15:44:53.606Z,12.50
2023-02-06T15:47:22.186Z,11.37
2023-02-06T15:49:53.295Z,11.07
2023-02-06T15:52:35.225Z,11.05
2023-02-06T15:55:04.954Z,13.88
2023-02-06T15:57:35.550Z,101.60
2023-02-06T16:00:09.823Z,13.75
2023-02-06T16:02:39.220Z,22.65
2023-02-06T16:05:09.213Z,14.48
2023-02-06T16:07:38.773Z,12.98
2023-02-06T16:10:21.665Z,16.23
2023-02-06T16:12:50.960Z,12.45
2023-02-06T16:15:30.316Z,17.25
2023-02-06T16:18:00.160Z,16.25
2023-02-06T16:20:39.872Z,22.70
2023-02-06T16:23:29.886Z,16.80
2023-02-06T16:26:04.988Z,22.27
2023-02-06T16:28:33.298Z,24.13
2023-02-06T16:31:05.503Z,21.83
2023-02-06T16:33:38.440Z,19.30
2023-02-06T16:36:07.858Z,29.05
2023-02-06T16:38:36.148Z,26.02
2023-02-06T16:41:04.984Z,21.00
2023-02-06T16:43:33.456Z,19.42
2023-02-06T16:46:03.350Z,18.95
2023-02-06T16:48:31.750Z,27.98
2023-02-06T16:51:00.588Z,22.70
2023-02-06T16:53:29.492Z,25.42
2023-02-06T16:55:58.037Z,20.98
2023-02-06T16:58:28.574Z,22.45
2023-02-06T17:00:57.332Z,28.15
2023-02-06T17:03:27.413Z,18.33
2023-02-06T17:05:55.975Z,18.98
2023-02-06T17:08:25.684Z,20.65
2023-02-06T17:10:54.386Z,20.92
2023-02-06T17:13:24.833Z,27.50
2023-02-06T17:15:53.682Z,17.95
2023-02-06T17:18:23.749Z,16.88
2023-02-06T17:20:56.330Z,23.15
2023-02-06T17:23:25.612Z,23.75
2023-02-06T17:25:54.225Z,29.35
2023-02-06T17:28:22.920Z,25.15
2023-02-06T17:30:52.193Z,37.70
2023-02-06T17:33:21.092Z,23.77
2023-02-06T17:35:50.123Z,30.13
2023-02-06T17:38:20.173Z,29.25
2023-02-06T17:40:48.877Z,28.27
2023-02-06T17:43:17.414Z,25.48
2023-02-06T17:45:46.140Z,27.15
2023-02-06T17:48:14.740Z,24.92
2023-02-06T17:50:43.819Z,26.38
2023-02-06T17:53:14.200Z,24.85
2023-02-06T17:55:45.299Z,25.88
2023-02-06T17:58:13.560Z,28.65
2023-02-06T18:00:42.157Z,25.80
2023-02-06T18:03:11.541Z,26.20
2023-02-06T18:05:40.335Z,22.20
2023-02-06T18:08:08.782Z,28.25
2023-02-06T18:10:40.712Z,34.40
2023-02-06T18:15:38.946Z,25.83
2023-02-06T18:18:07.377Z,25.90
2023-02-06T18:20:36.711Z,25.00
2023-02-06T18:23:05.292Z,21.13
2023-02-06T18:25:34.193Z,23.55
2023-02-06T18:28:02.878Z,23.63
2023-02-06T18:30:34.285Z,22.00
2023-02-06T18:33:03.210Z,25.10
2023-02-06T18:35:32.213Z,28.05
2023-02-06T18:38:00.735Z,30.08
2023-02-06T18:40:29.544Z,23.25
2023-02-06T18:42:57.793Z,19.58
2023-02-06T18:45:31.277Z,28.00
2023-02-06T18:48:01.423Z,20.08
2023-02-06T18:50:31.774Z,25.38
2023-02-06T18:53:00.129Z,26.27
2023-02-06T18:55:28.898Z,25.92
2023-02-06T18:57:57.215Z,21.50
2023-02-06T19:00:25.924Z,21.52
2023-02-06T19:02:54.232Z,22.83
2023-02-06T19:05:24.710Z,23.30
2023-02-06T19:07:54.213Z,25.33
2023-02-06T19:10:23.253Z,22.23
2023-02-06T19:12:51.617Z,21.98
2023-02-06T19:15:20.645Z,18.58
2023-02-06T19:17:50.437Z,18.80
2023-02-06T19:20:19.788Z,19.25
2023-02-06T19:22:49.507Z,17.45
2023-02-06T19:25:19.379Z,19.63
2023-02-06T19:27:47.783Z,18.65
2023-02-06T19:30:16.566Z,19.08
2023-02-06T19:32:46.187Z,17.88
2023-02-06T19:35:15.574Z,22.85
2023-02-06T19:37:43.753Z,42.25
2023-02-06T19:40:13.787Z,49.88
2023-02-06T19:42:42.190Z,41.00
2023-02-06T19:45:11.014Z,36.42
2023-02-06T19:47:39.458Z,37.58
2023-02-06T19:50:08.745Z,37.28
2023-02-06T19:52:37.033Z,42.15
2023-02-06T19:55:05.826Z,38.53
2023-02-06T19:57:35.548Z,42.28
2023-02-06T20:00:04.844Z,44.83
2023-02-06T20:02:33.228Z,51.47
2023-02-06T20:05:02.734Z,45.25
2023-02-06T20:07:31.830Z,48.03
2023-02-06T20:10:00.602Z,46.20
2023-02-06T20:12:29.243Z,44.42
2023-02-06T20:15:00.584Z,42.47
2023-02-06T20:17:29.270Z,44.05
2023-02-06T20:20:00.044Z,49.38
2023-02-06T20:22:28.921Z,56.33
2023-02-06T20:24:57.486Z,61.40
2023-02-06T20:27:26.589Z,74.57
2023-02-06T20:29:55.205Z,77.10
2023-02-06T20:32:25.240Z,74.85
2023-02-06T20:34:53.805Z,70.47
2023-02-06T20:37:22.544Z,64.00
2023-02-06T20:39:51.078Z,60.38
2023-02-06T20:42:22.353Z,49.53
2023-02-06T20:44:51.783Z,48.00
2023-02-06T20:47:20.093Z,66.97
2023-02-06T20:49:50.482Z,74.35
2023-02-06T20:52:19.234Z,73.30
2023-02-06T20:54:47.823Z,79.85
2023-02-06T20:57:16.437Z,71.60
2023-02-06T20:59:45.066Z,70.57
2023-02-06T21:02:13.507Z,69.60
2023-02-06T21:04:42.386Z,64.57
2023-02-06T21:07:12.396Z,65.75
2023-02-06T21:09:44.616Z,67.95
2023-02-06T21:12:12.952Z,70.72
2023-02-06T21:14:41.933Z,66.68
2023-02-06T21:17:10.565Z,59.47
2023-02-06T21:19:39.298Z,65.43
2023-02-06T21:22:07.489Z,67.95
2023-02-06T21:24:37.776Z,68.15
2023-02-06T21:27:06.225Z,67.32
2023-02-06T21:29:35.077Z,62.17
2023-02-06T21:32:13.375Z,62.22
2023-02-06T21:34:43.070Z,60.90
2023-02-06T21:37:11.899Z,68.35
2023-02-06T21:39:42.204Z,59.25
2023-02-06T21:42:11.559Z,66.03
2023-02-06T21:44:40.102Z,63.75
2023-02-06T21:47:09.936Z,59.63
2023-02-06T21:49:38.799Z,53.87
2023-02-06T21:52:07.416Z,56.28
2023-02-06T21:54:36.186Z,61.65
2023-02-06T21:57:06.077Z,56.00
2023-02-06T21:59:38.256Z,59.50
2023-02-06T22:02:06.612Z,66.53
2023-02-06T22:04:35.363Z,74.53
2023-02-06T22:07:03.697Z,76.78
2023-02-06T22:09:32.292Z,85.30
2023-02-06T22:12:01.740Z,90.47
2023-02-06T22:14:31.661Z,104.88
2023-02-06T22:17:00.103Z,104.90
2023-02-06T22:19:29.375Z,86.10
2023-02-06T22:21:57.786Z,92.07
2023-02-06T22:24:26.582Z,90.45
2023-02-06T22:26:54.919Z,82.13
2023-02-06T22:29:23.409Z,79.55
2023-02-06T22:31:53.021Z,83.53
2023-02-06T22:34:22.230Z,83.55
2023-02-06T22:36:51.767Z,82.88
2023-02-06T22:39:20.876Z,76.97
2023-02-06T22:41:52.558Z,73.97
2023-02-06T22:44:22.096Z,78.35
2023-02-06T22:46:53.971Z,81.90
2023-02-06T22:49:24.633Z,80.25
2023-02-06T22:51:53.524Z,86.63
2023-02-06T22:54:22.164Z,87.05
2023-02-06T22:56:50.648Z,97.05
2023-02-06T22:59:20.645Z,105.47
2023-02-06T23:01:50.872Z,101.10
2023-02-06T23:04:22.756Z,100.35
2023-02-06T23:06:52.137Z,85.97
2023-02-06T23:09:22.500Z,84.10
2023-02-06T23:11:52.075Z,77.63
2023-02-06T23:14:21.042Z,72.05
2023-02-06T23:16:49.944Z,70.45
2023-02-06T23:19:21.352Z,70.05
2023-02-06T23:21:51.452Z,73.75
2023-02-06T23:24:20.469Z,64.97
2023-02-06T23:26:50.665Z,62.00
2023-02-06T23:29:20.459Z,62.67
2023-02-06T23:31:49.558Z,60.15
2023-02-06T23:34:20.513Z,62.25
2023-02-06T23:36:49.127Z,63.78
2023-02-06T23:39:17.836Z,59.38
2023-02-06T23:41:46.257Z,59.10
2023-02-06T23:44:14.818Z,57.15
2023-02-06T23:46:43.335Z,64.53
2023-02-06T23:49:12.232Z,59.40
2023-02-06T23:51:42.246Z,61.90
2023-02-06T23:54:11.313Z,62.20
2023-02-06T23:56:39.926Z,66.38
2023-02-06T23:59:08.647Z,64.28
